createdAt,value
2018-08-06T00:04:36.066Z,101701.07
2018-08-06T00:09:38.238Z,101705.34
2018-08-06T00:14:40.463Z,101701.58
2018-08-06T00:19:42.631Z,101704.41
2018-08-06T00:24:44.793Z,101705.57
2018-08-06T00:29:46.961Z,101706.88
2018-08-06T00:34:49.137Z,101707.46
2018-08-06T00:39:51.331Z,101710.16
2018-08-06T00:44:53.537Z,101710.42
2018-08-06T00:49:55.775Z,101703.98
2018-08-06T00:54:57.977Z,101698.92
2018-08-06T01:00:00.168Z,101709.52
2018-08-06T01:05:02.449Z,101705.44
2018-08-06T01:10:05.454Z,101705.16
2018-08-06T01:15:09.005Z,101706.83
2018-08-06T01:20:11.987Z,101707.73
2018-08-06T01:25:14.610Z,101702.09
2018-08-06T01:30:16.821Z,101705.55
2018-08-06T01:35:18.998Z,101703.55
2018-08-06T01:40:21.166Z,101699.49
2018-08-06T01:45:23.362Z,101697.95
2018-08-06T01:50:25.890Z,101700.02
2018-08-06T01:55:28.089Z,101691.45
2018-08-06T02:00:30.267Z,101694.77
2018-08-06T02:05:32.533Z,101688.78
2018-08-06T02:10:34.741Z,101689.80
2018-08-06T02:15:37.363Z,101689.02
2018-08-06T02:20:39.566Z,101682.89
2018-08-06T02:25:41.784Z,101683.06
2018-08-06T02:30:44.040Z,101676.88
2018-08-06T02:35:46.225Z,101679.30
2018-08-06T02:40:48.443Z,101666.31
2018-08-06T02:45:50.710Z,101659.18
2018-08-06T02:50:52.976Z,101660.14
2018-08-06T02:55:55.185Z,101658.28
2018-08-06T03:00:57.393Z,101650.73
2018-08-06T03:05:59.643Z,101651.22
2018-08-06T03:11:01.914Z,101652.09
2018-08-06T03:16:04.787Z,101649.64
2018-08-06T03:21:07.038Z,101647.59
2018-08-06T03:26:09.304Z,101635.86
2018-08-06T03:31:11.476Z,101634.98
2018-08-06T03:36:13.703Z,101637.37
2018-08-06T03:41:15.938Z,101633.37
2018-08-06T03:46:18.226Z,101635.42
2018-08-06T03:51:20.509Z,101628.36
2018-08-06T03:56:22.691Z,101630.97
2018-08-06T04:01:24.910Z,101618.19
2018-08-06T04:06:27.123Z,101631.94
2018-08-06T04:11:29.358Z,101623.25
2018-08-06T04:16:36.134Z,101628.12
2018-08-06T04:21:38.564Z,101621.86
2018-08-06T04:26:40.837Z,101623.53
2018-08-06T04:31:43.010Z,101617.79
2018-08-06T04:36:45.215Z,101623.67
2018-08-06T04:41:47.455Z,101616.02
2018-08-06T04:46:49.659Z,101616.80
2018-08-06T04:51:51.843Z,101620.88
2018-08-06T04:56:54.074Z,101611.77
2018-08-06T05:01:56.292Z,101613.20
2018-08-06T05:06:58.620Z,101622.67
2018-08-06T05:12:00.760Z,101622.93
2018-08-06T05:17:03.273Z,101624.56
2018-08-06T05:22:05.844Z,101619.02
2018-08-06T05:27:08.067Z,101623.58
2018-08-06T05:32:10.307Z,101621.73
2018-08-06T05:37:12.936Z,101622.18
2018-08-06T05:42:15.115Z,101624.43
2018-08-06T05:47:17.311Z,101621.25
2018-08-06T05:52:19.559Z,101621.52
2018-08-06T05:57:22.045Z,101628.08
2018-08-06T06:02:24.298Z,101632.58
2018-08-06T06:07:26.513Z,101629.30
2018-08-06T06:12:28.905Z,101626.55
2018-08-06T06:17:31.094Z,101622.56
2018-08-06T06:22:33.254Z,101626.01
2018-08-06T06:27:35.668Z,101626.55
2018-08-06T06:32:37.872Z,101625.44
2018-08-06T06:37:40.147Z,101628.53
2018-08-06T06:42:42.654Z,101628.21
2018-08-06T06:47:44.928Z,101295.90
2018-08-06T06:58:01.585Z,101610.85
2018-08-06T07:03:04.970Z,101613.34
2018-08-06T07:08:07.187Z,101615.20
2018-08-06T07:13:09.411Z,101196.80
2018-08-06T07:18:11.629Z,101613.98
2018-08-06T07:23:13.803Z,101616.55
2018-08-06T09:57:43.497Z,101507.95
2018-08-06T10:02:46.288Z,101507.05
2018-08-06T10:07:48.494Z,101501.78
2018-08-06T10:12:50.664Z,101494.70
2018-08-06T10:17:53.992Z,101488.55
2018-08-06T10:22:56.180Z,101477.03
2018-08-06T10:27:58.341Z,101488.15
2018-08-06T10:33:00.538Z,101475.53
2018-08-06T10:38:02.701Z,101467.09
2018-08-06T10:43:04.876Z,101465.91
2018-08-06T10:48:07.058Z,101461.24
2018-08-06T10:53:09.268Z,101452.12
2018-08-06T10:58:11.425Z,101447.30
2018-08-06T11:03:13.632Z,101440.76
2018-08-06T11:08:15.823Z,101443.71
2018-08-06T11:13:17.995Z,101427.36
2018-08-06T11:18:20.126Z,101415.99
2018-08-06T11:23:22.280Z,101410.63
2018-08-06T11:28:24.523Z,101407.38
2018-08-06T11:33:26.721Z,101401.88
2018-08-06T11:38:28.903Z,101392.23
2018-08-06T11:43:31.082Z,101388.84
2018-08-06T11:48:33.217Z,101374.64
2018-08-06T11:53:35.442Z,101371.27
2018-08-06T11:58:37.649Z,101367.42
2018-08-06T12:03:39.850Z,101248.31
2018-08-06T12:08:42.145Z,101358.46
2018-08-06T12:13:44.319Z,101353.77
2018-08-06T12:18:46.489Z,101356.12
2018-08-06T12:23:48.778Z,101336.27
2018-08-06T12:28:50.969Z,101335.94
2018-08-06T12:33:53.638Z,101326.50
2018-08-06T12:39:06.151Z,101325.27
2018-08-06T12:44:10.187Z,101319.17
2018-08-06T12:49:12.384Z,101318.66
2018-08-06T12:54:14.624Z,101313.62
2018-08-06T12:59:16.824Z,101310.17
2018-08-06T13:04:19.028Z,101306.72
2018-08-06T13:09:21.257Z,101297.96
2018-08-06T13:14:23.701Z,101294.64
2018-08-06T13:19:25.894Z,101292.23
2018-08-06T13:24:28.096Z,101281.34
2018-08-06T13:29:30.281Z,101271.28
2018-08-06T13:34:32.412Z,101271.94
2018-08-06T13:39:34.599Z,101266.56
2018-08-06T13:44:37.020Z,101268.38
2018-08-06T13:49:39.198Z,101259.23
2018-08-06T13:54:41.429Z,101255.92
2018-08-06T13:59:43.677Z,101260.12
2018-08-06T14:04:45.941Z,101249.02
2018-08-06T14:09:48.140Z,101246.03
2018-08-06T14:14:50.328Z,101242.87
2018-08-06T14:19:52.617Z,101239.48
2018-08-06T14:24:54.844Z,101228.80
2018-08-06T14:29:56.985Z,101228.11
2018-08-06T14:34:59.247Z,101224.91
2018-08-06T14:40:01.482Z,101210.09
2018-08-06T14:45:04.906Z,101208.38
2018-08-06T14:50:08.777Z,101203.15
2018-08-06T14:55:10.955Z,101208.75
2018-08-06T15:00:19.074Z,101199.59
2018-08-06T15:05:21.367Z,101200.44
2018-08-06T15:10:23.541Z,101199.06
2018-08-06T15:15:25.755Z,101191.98
2018-08-06T15:20:27.947Z,101191.75
2018-08-06T15:25:30.227Z,101193.61
2018-08-06T15:30:32.454Z,101189.20
2018-08-06T15:35:34.679Z,101185.58
2018-08-06T15:40:36.885Z,101182.20
2018-08-06T15:45:39.038Z,101182.87
2018-08-06T15:50:41.230Z,101177.26
2018-08-06T15:55:43.435Z,101170.83
2018-08-06T16:00:45.678Z,101174.03
2018-08-06T16:05:47.875Z,101174.41
2018-08-06T16:10:50.090Z,101167.48
2018-08-06T16:15:52.292Z,101155.89
2018-08-06T16:20:54.454Z,101161.84
2018-08-06T16:25:56.623Z,101164.91
2018-08-06T16:30:58.882Z,101155.78
2018-08-06T16:36:01.084Z,101146.17
2018-08-06T16:41:03.272Z,101148.20
2018-08-06T16:46:05.506Z,101152.11
2018-08-06T16:51:07.911Z,101145.10
2018-08-06T16:56:10.120Z,101139.84
2018-08-06T17:01:12.398Z,101147.27
2018-08-06T17:06:14.654Z,101142.84
2018-08-06T17:11:16.855Z,101144.11
2018-08-06T17:16:19.079Z,101144.12
2018-08-06T17:21:21.274Z,101144.20
2018-08-06T17:26:23.418Z,101146.59
2018-08-06T17:31:25.585Z,101136.84
2018-08-06T17:36:27.789Z,101138.23
2018-08-06T17:41:29.951Z,101141.80
2018-08-06T17:46:32.141Z,101139.96
2018-08-06T17:51:34.323Z,101139.45
2018-08-06T17:56:37.509Z,101136.70
2018-08-06T18:01:40.649Z,101142.80
2018-08-06T18:06:42.903Z,101135.75
2018-08-06T18:11:45.080Z,101135.56
2018-08-06T18:16:47.328Z,101141.84
2018-08-06T18:21:49.497Z,101146.08
2018-08-06T18:26:51.654Z,101147.27
2018-08-06T18:31:53.849Z,101141.50
2018-08-06T18:36:56.159Z,101152.23
2018-08-06T18:41:58.312Z,101150.42
2018-08-06T18:47:00.490Z,101149.27
2018-08-06T18:52:02.725Z,101153.94
2018-08-06T18:57:04.979Z,101151.11
2018-08-06T19:02:07.204Z,101148.31
2018-08-06T19:07:09.524Z,101150.27
2018-08-06T19:12:17.509Z,101151.27
2018-08-06T19:17:19.712Z,101144.50
2018-08-06T19:22:21.908Z,101146.09
2018-08-06T19:27:24.113Z,101141.96
2018-08-06T19:32:26.302Z,101148.63
2018-08-06T19:37:34.142Z,101153.92
2018-08-06T19:42:42.123Z,101151.89
2018-08-06T19:47:44.751Z,101149.78
2018-08-06T19:52:47.038Z,101148.28
2018-08-06T19:57:49.262Z,101141.93
2018-08-06T20:02:51.470Z,101137.81
2018-08-06T20:07:54.888Z,101138.73
2018-08-06T20:12:57.119Z,101139.06
2018-08-06T20:17:59.405Z,101139.96
2018-08-06T20:23:01.614Z,101134.93
2018-08-06T20:28:04.027Z,101139.34
2018-08-06T20:33:06.449Z,101135.46
2018-08-06T20:38:08.693Z,101136.95
2018-08-06T20:43:10.947Z,101134.63
2018-08-06T20:48:13.169Z,101139.38
2018-08-06T20:53:15.366Z,101141.72
2018-08-06T20:58:17.576Z,101147.37
2018-08-06T21:03:19.777Z,101147.05
2018-08-06T21:08:21.967Z,101144.12
2018-08-06T21:13:24.130Z,101133.53
2018-08-06T21:18:26.306Z,101132.23
2018-08-06T21:23:28.546Z,101135.70
2018-08-06T21:28:30.684Z,101128.55
2018-08-06T21:33:32.894Z,101128.19
2018-08-06T21:38:35.167Z,101124.39
2018-08-06T21:43:37.383Z,101124.41
2018-08-06T21:48:40.055Z,101124.91
2018-08-06T21:53:42.297Z,101121.94
2018-08-06T21:58:44.526Z,101120.35
2018-08-06T22:03:46.690Z,101128.99
2018-08-06T22:08:48.942Z,101134.53
2018-08-06T22:13:51.090Z,101135.95
2018-08-06T22:18:53.356Z,101131.67
2018-08-06T22:23:55.573Z,101130.69
2018-08-06T22:28:57.776Z,101128.27
2018-08-06T22:34:00.126Z,101122.50
2018-08-06T22:39:02.230Z,101121.73
2018-08-06T22:44:04.723Z,101123.06
2018-08-06T22:49:06.870Z,101123.86
2018-08-06T22:54:09.079Z,101124.94
2018-08-06T22:59:11.284Z,101122.81
2018-08-06T23:04:13.536Z,101117.70
2018-08-06T23:09:15.799Z,101119.45
2018-08-06T23:14:17.978Z,101108.66
2018-08-06T23:19:20.189Z,101112.26
2018-08-06T23:24:22.369Z,101110.19
2018-08-06T23:29:24.584Z,101109.04
2018-08-06T23:34:26.743Z,101111.23
2018-08-06T23:39:28.908Z,101109.58
2018-08-06T23:44:31.096Z,101097.13
2018-08-06T23:49:33.259Z,101088.08
2018-08-06T23:54:35.441Z,101083.39
2018-08-06T23:59:37.632Z,101083.31
